sensor_id;sensor_type;location;lat;lon;timestamp;temperature;humidity
46217;DHT22;47258;59.424;13.482;2023-04-08T00:00:35;1.30;99.90
46217;DHT22;47258;59.424;13.482;2023-04-08T00:03:02;1.30;99.90
46217;DHT22;47258;59.424;13.482;2023-04-08T00:05:31;1.20;99.90
46217;DHT22;47258;59.424;13.482;2023-04-08T00:07:58;1.20;99.90
46217;DHT22;47258;59.424;13.482;2023-04-08T00:10:25;1.20;99.90
46217;DHT22;47258;59.424;13.482;2023-04-08T00:12:52;1.10;99.90
46217;DHT22;47258;59.424;13.482;2023-04-08T00:15:20;1.10;99.90
46217;DHT22;47258;59.424;13.482;2023-04-08T00:17:47;1.10;99.90
46217;DHT22;47258;59.424;13.482;2023-04-08T00:20:14;1.10;99.90
46217;DHT22;47258;59.424;13.482;2023-04-08T00:22:43;1.10;99.90
46217;DHT22;47258;59.424;13.482;2023-04-08T00:25:10;1.10;99.90
46217;DHT22;47258;59.424;13.482;2023-04-08T00:27:37;1.00;99.90
46217;DHT22;47258;59.424;13.482;2023-04-08T00:30:04;1.00;99.90
46217;DHT22;47258;59.424;13.482;2023-04-08T00:32:32;1.00;99.90
46217;DHT22;47258;59.424;13.482;2023-04-08T00:34:59;1.00;99.90
46217;DHT22;47258;59.424;13.482;2023-04-08T00:37:27;0.90;99.90
46217;DHT22;47258;59.424;13.482;2023-04-08T00:39:55;0.90;99.90
46217;DHT22;47258;59.424;13.482;2023-04-08T00:42:22;0.90;99.90
46217;DHT22;47258;59.424;13.482;2023-04-08T00:44:49;0.90;99.90
46217;DHT22;47258;59.424;13.482;2023-04-08T00:47:16;0.80;99.90
46217;DHT22;47258;59.424;13.482;2023-04-08T00:49:43;0.80;99.90
46217;DHT22;47258;59.424;13.482;2023-04-08T00:52:10;0.80;99.90
46217;DHT22;47258;59.424;13.482;2023-04-08T00:54:37;0.80;99.90
46217;DHT22;47258;59.424;13.482;2023-04-08T00:57:06;0.80;99.90
46217;DHT22;47258;59.424;13.482;2023-04-08T00:59:33;0.70;99.90
46217;DHT22;47258;59.424;13.482;2023-04-08T01:02:04;0.70;99.90
46217;DHT22;47258;59.424;13.482;2023-04-08T01:04:37;0.70;99.90
46217;DHT22;47258;59.424;13.482;2023-04-08T01:07:07;0.70;99.90
46217;DHT22;47258;59.424;13.482;2023-04-08T01:09:38;0.70;99.90
46217;DHT22;47258;59.424;13.482;2023-04-08T01:12:07;0.60;99.90
46217;DHT22;47258;59.424;13.482;2023-04-08T01:14:37;0.60;99.90
46217;DHT22;47258;59.424;13.482;2023-04-08T01:17:04;0.60;99.90
46217;DHT22;47258;59.424;13.482;2023-04-08T01:19:33;0.60;99.90
46217;DHT22;47258;59.424;13.482;2023-04-08T01:22:02;0.60;99.90
46217;DHT22;47258;59.424;13.482;2023-04-08T01:24:32;0.50;99.90
46217;DHT22;47258;59.424;13.482;2023-04-08T01:27:03;0.50;99.90
46217;DHT22;47258;59.424;13.482;2023-04-08T01:29:31;0.50;99.90
46217;DHT22;47258;59.424;13.482;2023-04-08T01:31:59;0.50;99.90
46217;DHT22;47258;59.424;13.482;2023-04-08T01:34:27;0.50;99.90
46217;DHT22;47258;59.424;13.482;2023-04-08T01:36:54;0.50;99.90
46217;DHT22;47258;59.424;13.482;2023-04-08T01:39:21;0.40;99.90
46217;DHT22;47258;59.424;13.482;2023-04-08T01:41:48;0.40;99.90
46217;DHT22;47258;59.424;13.482;2023-04-08T01:44:19;0.40;99.90
46217;DHT22;47258;59.424;13.482;2023-04-08T01:46:47;0.40;99.90
46217;DHT22;47258;59.424;13.482;2023-04-08T01:49:15;0.30;99.90
46217;DHT22;47258;59.424;13.482;2023-04-08T01:51:42;0.30;99.90
46217;DHT22;47258;59.424;13.482;2023-04-08T01:54:10;0.30;99.90
46217;DHT22;47258;59.424;13.482;2023-04-08T01:56:38;0.30;99.90
46217;DHT22;47258;59.424;13.482;2023-04-08T01:59:08;0.30;99.90
46217;DHT22;47258;59.424;13.482;2023-04-08T02:01:37;0.30;99.90
46217;DHT22;47258;59.424;13.482;2023-04-08T02:04:05;0.30;99.90
46217;DHT22;47258;59.424;13.482;2023-04-08T02:06:32;0.30;99.90
46217;DHT22;47258;59.424;13.482;2023-04-08T02:08:59;0.30;99.90
46217;DHT22;47258;59.424;13.482;2023-04-08T02:11:26;0.20;99.90
46217;DHT22;47258;59.424;13.482;2023-04-08T02:13:53;0.20;99.90
46217;DHT22;47258;59.424;13.482;2023-04-08T02:16:21;0.20;99.90
46217;DHT22;47258;59.424;13.482;2023-04-08T02:18:52;0.20;99.90
46217;DHT22;47258;59.424;13.482;2023-04-08T02:21:21;0.20;99.90
46217;DHT22;47258;59.424;13.482;2023-04-08T02:23:52;0.20;99.90
46217;DHT22;47258;59.424;13.482;2023-04-08T02:26:20;0.10;99.90
46217;DHT22;47258;59.424;13.482;2023-04-08T02:28:48;0.10;99.90
46217;DHT22;47258;59.424;13.482;2023-04-08T02:31:16;0.10;99.90
46217;DHT22;47258;59.424;13.482;2023-04-08T02:33:43;0.10;99.90
46217;DHT22;47258;59.424;13.482;2023-04-08T02:36:12;0.10;99.90
46217;DHT22;47258;59.424;13.482;2023-04-08T02:38:40;0.10;99.90
46217;DHT22;47258;59.424;13.482;2023-04-08T02:41:07;0.10;99.90
46217;DHT22;47258;59.424;13.482;2023-04-08T02:43:34;0.00;99.90
46217;DHT22;47258;59.424;13.482;2023-04-08T02:46:01;0.00;99.90
46217;DHT22;47258;59.424;13.482;2023-04-08T02:48:28;0.00;99.90
46217;DHT22;47258;59.424;13.482;2023-04-08T02:50:55;0.00;99.90
46217;DHT22;47258;59.424;13.482;2023-04-08T02:53:24;-0.10;99.90
46217;DHT22;47258;59.424;13.482;2023-04-08T02:55:51;-0.20;99.90
46217;DHT22;47258;59.424;13.482;2023-04-08T02:58:18;-0.20;99.90
46217;DHT22;47258;59.424;13.482;2023-04-08T03:00:45;-0.20;99.90
46217;DHT22;47258;59.424;13.482;2023-04-08T03:03:12;-0.20;99.90
46217;DHT22;47258;59.424;13.482;2023-04-08T03:05:39;-0.20;99.90
46217;DHT22;47258;59.424;13.482;2023-04-08T03:08:06;-0.20;99.90
46217;DHT22;47258;59.424;13.482;2023-04-08T03:10:34;-0.20;99.90
46217;DHT22;47258;59.424;13.482;2023-04-08T03:13:01;0.90;99.90
46217;DHT22;47258;59.424;13.482;2023-04-08T03:15:28;-0.20;99.90
46217;DHT22;47258;59.424;13.482;2023-04-08T03:17:55;-0.20;99.90
46217;DHT22;47258;59.424;13.482;2023-04-08T03:20:22;-0.40;99.90
46217;DHT22;47258;59.424;13.482;2023-04-08T03:22:49;-0.30;99.90
46217;DHT22;47258;59.424;13.482;2023-04-08T03:25:16;-0.30;99.90
46217;DHT22;47258;59.424;13.482;2023-04-08T03:27:44;-0.30;99.90
46217;DHT22;47258;59.424;13.482;2023-04-08T03:30:11;-0.40;99.90
46217;DHT22;47258;59.424;13.482;2023-04-08T03:32:38;-0.40;99.90
46217;DHT22;47258;59.424;13.482;2023-04-08T03:35:05;-0.40;99.90
46217;DHT22;47258;59.424;13.482;2023-04-08T03:37:33;-0.40;99.90
46217;DHT22;47258;59.424;13.482;2023-04-08T03:40:00;-0.40;99.90
46217;DHT22;47258;59.424;13.482;2023-04-08T03:42:27;-0.50;99.90
46217;DHT22;47258;59.424;13.482;2023-04-08T03:44:55;-0.50;99.90
46217;DHT22;47258;59.424;13.482;2023-04-08T03:47:23;-0.40;99.90
46217;DHT22;47258;59.424;13.482;2023-04-08T03:49:51;-0.40;99.90
46217;DHT22;47258;59.424;13.482;2023-04-08T03:52:18;-0.50;99.90
46217;DHT22;47258;59.424;13.482;2023-04-08T03:54:45;-0.50;99.90
46217;DHT22;47258;59.424;13.482;2023-04-08T03:57:12;-0.50;99.90
46217;DHT22;47258;59.424;13.482;2023-04-08T03:59:40;-0.50;99.90
46217;DHT22;47258;59.424;13.482;2023-04-08T04:02:08;-0.50;99.90
46217;DHT22;47258;59.424;13.482;2023-04-08T04:04:35;-0.50;99.90
46217;DHT22;47258;59.424;13.482;2023-04-08T04:07:02;-0.50;99.90
46217;DHT22;47258;59.424;13.482;2023-04-08T04:09:29;-0.50;99.90
46217;DHT22;47258;59.424;13.482;2023-04-08T04:11:56;-0.50;99.90
46217;DHT22;47258;59.424;13.482;2023-04-08T04:14:23;-0.50;99.90
46217;DHT22;47258;59.424;13.482;2023-04-08T04:16:51;-0.50;99.90
46217;DHT22;47258;59.424;13.482;2023-04-08T04:19:19;-0.60;99.90
46217;DHT22;47258;59.424;13.482;2023-04-08T04:21:46;-0.50;99.90
46217;DHT22;47258;59.424;13.482;2023-04-08T04:24:13;-0.60;99.90
46217;DHT22;47258;59.424;13.482;2023-04-08T04:26:40;-0.60;99.90
46217;DHT22;47258;59.424;13.482;2023-04-08T04:29:07;-0.60;99.90
46217;DHT22;47258;59.424;13.482;2023-04-08T04:31:34;-0.60;99.90
46217;DHT22;47258;59.424;13.482;2023-04-08T04:34:01;-0.60;99.90
46217;DHT22;47258;59.424;13.482;2023-04-08T04:36:30;-0.60;99.90
46217;DHT22;47258;59.424;13.482;2023-04-08T04:38:57;-0.60;99.90
46217;DHT22;47258;59.424;13.482;2023-04-08T04:41:24;-0.60;99.90
46217;DHT22;47258;59.424;13.482;2023-04-08T04:43:51;-0.60;99.90
46217;DHT22;47258;59.424;13.482;2023-04-08T04:46:18;-0.60;99.90
46217;DHT22;47258;59.424;13.482;2023-04-08T04:48:45;-0.60;99.90
46217;DHT22;47258;59.424;13.482;2023-04-08T04:51:13;-0.60;99.90
46217;DHT22;47258;59.424;13.482;2023-04-08T04:53:41;-0.60;99.90
46217;DHT22;47258;59.424;13.482;2023-04-08T04:56:08;-0.50;99.90
46217;DHT22;47258;59.424;13.482;2023-04-08T04:58:35;-0.60;99.90
46217;DHT22;47258;59.424;13.482;2023-04-08T05:01:02;-0.60;99.90
46217;DHT22;47258;59.424;13.482;2023-04-08T05:03:30;-0.60;99.90
46217;DHT22;47258;59.424;13.482;2023-04-08T05:05:57;-0.50;99.90
46217;DHT22;47258;59.424;13.482;2023-04-08T05:08:24;-0.50;99.90
46217;DHT22;47258;59.424;13.482;2023-04-08T05:10:52;-0.50;99.90
46217;DHT22;47258;59.424;13.482;2023-04-08T05:13:20;-0.50;99.90
46217;DHT22;47258;59.424;13.482;2023-04-08T05:15:47;-0.50;99.90
46217;DHT22;47258;59.424;13.482;2023-04-08T05:18:14;-0.50;99.90
46217;DHT22;47258;59.424;13.482;2023-04-08T05:20:41;-0.40;99.90
46217;DHT22;47258;59.424;13.482;2023-04-08T05:23:08;-0.40;99.90
46217;DHT22;47258;59.424;13.482;2023-04-08T05:25:35;-0.50;99.90
46217;DHT22;47258;59.424;13.482;2023-04-08T05:28:04;-0.40;99.90
46217;DHT22;47258;59.424;13.482;2023-04-08T05:30:31;-0.40;99.90
46217;DHT22;47258;59.424;13.482;2023-04-08T05:33:00;-0.40;99.90
46217;DHT22;47258;59.424;13.482;2023-04-08T05:35:45;-0.40;99.90
46217;DHT22;47258;59.424;13.482;2023-04-08T05:38:17;-0.30;99.90
46217;DHT22;47258;59.424;13.482;2023-04-08T05:40:53;-0.30;99.90
46217;DHT22;47258;59.424;13.482;2023-04-08T05:43:22;-0.30;99.90
46217;DHT22;47258;59.424;13.482;2023-04-08T05:45:55;-0.30;99.90
46217;DHT22;47258;59.424;13.482;2023-04-08T05:48:23;-0.20;99.90
46217;DHT22;47258;59.424;13.482;2023-04-08T05:50:53;-0.20;99.90
46217;DHT22;47258;59.424;13.482;2023-04-08T05:53:24;-0.20;99.90
46217;DHT22;47258;59.424;13.482;2023-04-08T05:55:53;-0.20;99.90
46217;DHT22;47258;59.424;13.482;2023-04-08T05:58:25;-0.10;99.90
46217;DHT22;47258;59.424;13.482;2023-04-08T06:00:53;-0.10;99.90
46217;DHT22;47258;59.424;13.482;2023-04-08T06:03:21;-0.10;99.90
46217;DHT22;47258;59.424;13.482;2023-04-08T06:05:50;-0.10;99.90
46217;DHT22;47258;59.424;13.482;2023-04-08T06:08:17;0.00;99.90
46217;DHT22;47258;59.424;13.482;2023-04-08T06:10:47;0.00;99.90
46217;DHT22;47258;59.424;13.482;2023-04-08T06:13:15;0.00;99.90
46217;DHT22;47258;59.424;13.482;2023-04-08T06:15:47;0.10;99.90
46217;DHT22;47258;59.424;13.482;2023-04-08T06:18:14;0.10;99.90
46217;DHT22;47258;59.424;13.482;2023-04-08T06:20:42;0.20;99.90
46217;DHT22;47258;59.424;13.482;2023-04-08T06:23:12;0.20;99.90
46217;DHT22;47258;59.424;13.482;2023-04-08T06:25:43;0.20;99.90
46217;DHT22;47258;59.424;13.482;2023-04-08T06:28:14;0.30;99.90
46217;DHT22;47258;59.424;13.482;2023-04-08T06:30:45;0.40;99.90
46217;DHT22;47258;59.424;13.482;2023-04-08T06:33:12;0.40;99.90
46217;DHT22;47258;59.424;13.482;2023-04-08T06:35:41;0.50;99.90
46217;DHT22;47258;59.424;13.482;2023-04-08T06:38:12;0.50;99.90
46217;DHT22;47258;59.424;13.482;2023-04-08T06:40:39;0.60;99.90
46217;DHT22;47258;59.424;13.482;2023-04-08T06:43:07;0.70;99.90
46217;DHT22;47258;59.424;13.482;2023-04-08T06:45:38;0.70;99.90
46217;DHT22;47258;59.424;13.482;2023-04-08T06:48:08;0.80;99.90
46217;DHT22;47258;59.424;13.482;2023-04-08T06:50:38;0.90;99.90
46217;DHT22;47258;59.424;13.482;2023-04-08T06:53:07;1.10;99.90
46217;DHT22;47258;59.424;13.482;2023-04-08T06:55:38;1.50;99.90
46217;DHT22;47258;59.424;13.482;2023-04-08T06:58:05;2.00;99.90
46217;DHT22;47258;59.424;13.482;2023-04-08T07:00:35;2.50;99.90
46217;DHT22;47258;59.424;13.482;2023-04-08T07:03:02;2.90;99.90
46217;DHT22;47258;59.424;13.482;2023-04-08T07:05:31;3.20;99.90
46217;DHT22;47258;59.424;13.482;2023-04-08T07:07:59;3.50;99.90
46217;DHT22;47258;59.424;13.482;2023-04-08T07:10:27;3.70;99.90
46217;DHT22;47258;59.424;13.482;2023-04-08T07:12:57;3.90;99.90
46217;DHT22;47258;59.424;13.482;2023-04-08T07:15:25;4.10;99.90
46217;DHT22;47258;59.424;13.482;2023-04-08T07:17:52;4.30;99.90
46217;DHT22;47258;59.424;13.482;2023-04-08T07:20:21;4.50;99.90
46217;DHT22;47258;59.424;13.482;2023-04-08T07:22:50;4.60;99.90
46217;DHT22;47258;59.424;13.482;2023-04-08T07:25:18;4.80;99.90
46217;DHT22;47258;59.424;13.482;2023-04-08T07:27:45;5.00;99.90
46217;DHT22;47258;59.424;13.482;2023-04-08T07:30:12;5.10;99.90
46217;DHT22;47258;59.424;13.482;2023-04-08T07:32:41;5.30;99.90
46217;DHT22;47258;59.424;13.482;2023-04-08T07:35:11;5.50;99.90
46217;DHT22;47258;59.424;13.482;2023-04-08T07:37:38;5.70;99.90
46217;DHT22;47258;59.424;13.482;2023-04-08T07:40:10;5.90;99.90
46217;DHT22;47258;59.424;13.482;2023-04-08T07:42:41;6.10;99.90
46217;DHT22;47258;59.424;13.482;2023-04-08T07:45:09;6.40;99.90
46217;DHT22;47258;59.424;13.482;2023-04-08T07:47:39;6.60;99.90
46217;DHT22;47258;59.424;13.482;2023-04-08T07:50:07;6.90;99.90
46217;DHT22;47258;59.424;13.482;2023-04-08T07:52:34;7.20;99.90
46217;DHT22;47258;59.424;13.482;2023-04-08T07:55:01;7.60;99.90
46217;DHT22;47258;59.424;13.482;2023-04-08T07:57:31;8.00;99.90
46217;DHT22;47258;59.424;13.482;2023-04-08T07:59:59;8.50;99.90
46217;DHT22;47258;59.424;13.482;2023-04-08T08:02:26;8.90;99.90
46217;DHT22;47258;59.424;13.482;2023-04-08T08:04:57;9.40;99.90
46217;DHT22;47258;59.424;13.482;2023-04-08T08:07:26;10.00;99.90
46217;DHT22;47258;59.424;13.482;2023-04-08T08:09:56;10.50;99.90
46217;DHT22;47258;59.424;13.482;2023-04-08T08:12:24;11.10;99.90
46217;DHT22;47258;59.424;13.482;2023-04-08T08:14:53;11.70;99.90
46217;DHT22;47258;59.424;13.482;2023-04-08T08:17:23;12.20;99.90
46217;DHT22;47258;59.424;13.482;2023-04-08T08:19:50;12.70;99.90
46217;DHT22;47258;59.424;13.482;2023-04-08T08:22:18;13.10;99.90
46217;DHT22;47258;59.424;13.482;2023-04-08T08:24:46;13.50;99.90
46217;DHT22;47258;59.424;13.482;2023-04-08T08:27:13;13.90;99.90
46217;DHT22;47258;59.424;13.482;2023-04-08T08:29:40;14.20;99.90
46217;DHT22;47258;59.424;13.482;2023-04-08T08:32:15;14.40;99.90
46217;DHT22;47258;59.424;13.482;2023-04-08T08:34:42;14.60;99.90
46217;DHT22;47258;59.424;13.482;2023-04-08T08:37:10;14.80;99.90
46217;DHT22;47258;59.424;13.482;2023-04-08T08:39:38;14.70;99.90
46217;DHT22;47258;59.424;13.482;2023-04-08T08:42:05;14.60;99.90
46217;DHT22;47258;59.424;13.482;2023-04-08T08:44:33;14.60;99.90
46217;DHT22;47258;59.424;13.482;2023-04-08T08:47:01;14.50;99.80
46217;DHT22;47258;59.424;13.482;2023-04-08T08:49:30;14.60;99.30
46217;DHT22;47258;59.424;13.482;2023-04-08T08:51:59;14.80;98.90
46217;DHT22;47258;59.424;13.482;2023-04-08T08:54:26;14.90;98.40
46217;DHT22;47258;59.424;13.482;2023-04-08T08:56:54;14.90;97.10
46217;DHT22;47258;59.424;13.482;2023-04-08T08:59:22;14.90;95.80
46217;DHT22;47258;59.424;13.482;2023-04-08T09:01:54;15.00;96.10
46217;DHT22;47258;59.424;13.482;2023-04-08T09:04:27;15.00;95.70
46217;DHT22;47258;59.424;13.482;2023-04-08T09:07:11;14.90;94.00
46217;DHT22;47258;59.424;13.482;2023-04-08T09:09:47;14.80;94.10
46217;DHT22;47258;59.424;13.482;2023-04-08T09:12:14;14.70;94.30
46217;DHT22;47258;59.424;13.482;2023-04-08T09:14:45;14.80;93.90
46217;DHT22;47258;59.424;13.482;2023-04-08T09:17:13;14.90;93.90
46217;DHT22;47258;59.424;13.482;2023-04-08T09:19:49;15.00;92.20
46217;DHT22;47258;59.424;13.482;2023-04-08T09:22:36;15.20;91.80
46217;DHT22;47258;59.424;13.482;2023-04-08T09:25:24;15.40;91.70
46217;DHT22;47258;59.424;13.482;2023-04-08T09:27:52;15.60;90.80
46217;DHT22;47258;59.424;13.482;2023-04-08T09:30:20;15.80;90.70
46217;DHT22;47258;59.424;13.482;2023-04-08T09:32:48;16.10;89.90
46217;DHT22;47258;59.424;13.482;2023-04-08T09:35:17;16.00;87.50
46217;DHT22;47258;59.424;13.482;2023-04-08T09:37:46;15.70;85.70
46217;DHT22;47258;59.424;13.482;2023-04-08T09:40:14;15.30;86.20
46217;DHT22;47258;59.424;13.482;2023-04-08T09:42:46;14.90;85.80
46217;DHT22;47258;59.424;13.482;2023-04-08T09:45:18;14.50;85.50
46217;DHT22;47258;59.424;13.482;2023-04-08T09:47:55;14.20;85.40
46217;DHT22;47258;59.424;13.482;2023-04-08T09:50:25;14.00;86.90
46217;DHT22;47258;59.424;13.482;2023-04-08T09:52:59;13.70;87.20
46217;DHT22;47258;59.424;13.482;2023-04-08T09:55:29;13.50;88.00
46217;DHT22;47258;59.424;13.482;2023-04-08T09:58:03;13.30;89.40
46217;DHT22;47258;59.424;13.482;2023-04-08T10:00:33;13.20;90.50
46217;DHT22;47258;59.424;13.482;2023-04-08T10:03:05;13.10;90.50
46217;DHT22;47258;59.424;13.482;2023-04-08T10:05:36;13.00;89.70
46217;DHT22;47258;59.424;13.482;2023-04-08T10:32:59;12.30;95.70
46217;DHT22;47258;59.424;13.482;2023-04-08T10:39:14;12.20;94.20
46217;DHT22;47258;59.424;13.482;2023-04-08T10:42:20;12.00;94.20
46217;DHT22;47258;59.424;13.482;2023-04-08T10:45:34;12.00;94.30
46217;DHT22;47258;59.424;13.482;2023-04-08T11:01:01;11.90;94.70
46217;DHT22;47258;59.424;13.482;2023-04-08T11:03:53;11.90;94.90
46217;DHT22;47258;59.424;13.482;2023-04-08T11:06:41;11.90;95.10
46217;DHT22;47258;59.424;13.482;2023-04-08T11:09:46;11.90;95.10
46217;DHT22;47258;59.424;13.482;2023-04-08T11:12:59;11.90;96.90
46217;DHT22;47258;59.424;13.482;2023-04-08T11:15:51;11.80;97.40
46217;DHT22;47258;59.424;13.482;2023-04-08T11:18:56;11.80;97.00
46217;DHT22;47258;59.424;13.482;2023-04-08T11:25:02;11.80;95.40
46217;DHT22;47258;59.424;13.482;2023-04-08T11:28:17;11.80;96.10
46217;DHT22;47258;59.424;13.482;2023-04-08T11:40:43;11.80;95.80
46217;DHT22;47258;59.424;13.482;2023-04-08T11:43:24;11.80;95.50
46217;DHT22;47258;59.424;13.482;2023-04-08T11:46:20;11.80;96.10
46217;DHT22;47258;59.424;13.482;2023-04-08T11:49:52;11.70;95.30
46217;DHT22;47258;59.424;13.482;2023-04-08T11:52:41;11.80;96.20
46217;DHT22;47258;59.424;13.482;2023-04-08T12:43:44;12.10;99.90
46217;DHT22;47258;59.424;13.482;2023-04-08T13:05:52;12.10;99.90
46217;DHT22;47258;59.424;13.482;2023-04-08T13:08:35;12.20;99.90
46217;DHT22;47258;59.424;13.482;2023-04-08T13:11:14;12.20;85.00
46217;DHT22;47258;59.424;13.482;2023-04-08T13:13:57;12.20;85.40
46217;DHT22;47258;59.424;13.482;2023-04-08T13:17:07;12.20;84.70
46217;DHT22;47258;59.424;13.482;2023-04-08T13:20:11;12.20;82.90
46217;DHT22;47258;59.424;13.482;2023-04-08T13:26:06;12.20;83.40
46217;DHT22;47258;59.424;13.482;2023-04-08T13:29:17;12.30;86.20
46217;DHT22;47258;59.424;13.482;2023-04-08T13:32:10;12.30;86.70
46217;DHT22;47258;59.424;13.482;2023-04-08T13:34:58;12.30;86.00
46217;DHT22;47258;59.424;13.482;2023-04-08T13:37:57;12.30;84.90
46217;DHT22;47258;59.424;13.482;2023-04-08T13:44:20;12.30;83.60
46217;DHT22;47258;59.424;13.482;2023-04-08T13:47:06;12.30;84.00
46217;DHT22;47258;59.424;13.482;2023-04-08T13:52:54;12.40;85.10
46217;DHT22;47258;59.424;13.482;2023-04-08T13:55:37;12.40;83.90
46217;DHT22;47258;59.424;13.482;2023-04-08T13:58:26;12.40;83.30
46217;DHT22;47258;59.424;13.482;2023-04-08T14:07:26;12.40;80.10
46217;DHT22;47258;59.424;13.482;2023-04-08T14:10:17;12.40;80.20
46217;DHT22;47258;59.424;13.482;2023-04-08T14:13:03;12.40;81.80
46217;DHT22;47258;59.424;13.482;2023-04-08T14:22:13;12.40;83.40
46217;DHT22;47258;59.424;13.482;2023-04-08T14:34:18;12.40;86.40
46217;DHT22;47258;59.424;13.482;2023-04-08T14:43:18;12.50;84.70
46217;DHT22;47258;59.424;13.482;2023-04-08T14:46:06;12.50;86.20
46217;DHT22;47258;59.424;13.482;2023-04-08T14:49:04;12.50;86.30
46217;DHT22;47258;59.424;13.482;2023-04-08T14:51:58;12.60;85.70
46217;DHT22;47258;59.424;13.482;2023-04-08T14:55:05;12.60;84.40
46217;DHT22;47258;59.424;13.482;2023-04-08T14:58:13;12.60;85.60
46217;DHT22;47258;59.424;13.482;2023-04-08T15:01:22;12.60;86.70
46217;DHT22;47258;59.424;13.482;2023-04-08T15:04:21;12.60;87.50
46217;DHT22;47258;59.424;13.482;2023-04-08T15:13:09;12.70;87.00
46217;DHT22;47258;59.424;13.482;2023-04-08T15:15:44;12.70;86.80
46217;DHT22;47258;59.424;13.482;2023-04-08T15:18:28;12.70;86.30
46217;DHT22;47258;59.424;13.482;2023-04-08T15:21:40;12.70;86.10
46217;DHT22;47258;59.424;13.482;2023-04-08T15:24:13;12.70;87.20
46217;DHT22;47258;59.424;13.482;2023-04-08T15:26:50;12.70;86.80
46217;DHT22;47258;59.424;13.482;2023-04-08T15:29:24;12.70;85.70
46217;DHT22;47258;59.424;13.482;2023-04-08T15:32:02;12.70;85.60
46217;DHT22;47258;59.424;13.482;2023-04-08T15:34:35;12.70;86.60
46217;DHT22;47258;59.424;13.482;2023-04-08T15:37:05;12.70;87.20
46217;DHT22;47258;59.424;13.482;2023-04-08T15:39:33;12.70;86.80
46217;DHT22;47258;59.424;13.482;2023-04-08T15:42:07;12.70;86.50
46217;DHT22;47258;59.424;13.482;2023-04-08T15:44:39;12.70;86.40
46217;DHT22;47258;59.424;13.482;2023-04-08T15:47:08;12.70;86.10
46217;DHT22;47258;59.424;13.482;2023-04-08T15:49:40;12.70;85.50
46217;DHT22;47258;59.424;13.482;2023-04-08T15:52:15;12.70;86.30
46217;DHT22;47258;59.424;13.482;2023-04-08T15:54:52;12.70;86.60
46217;DHT22;47258;59.424;13.482;2023-04-08T15:57:25;12.70;86.80
46217;DHT22;47258;59.424;13.482;2023-04-08T15:59:58;12.70;86.50
46217;DHT22;47258;59.424;13.482;2023-04-08T16:02:28;12.70;86.60
46217;DHT22;47258;59.424;13.482;2023-04-08T16:04:58;12.60;86.90
46217;DHT22;47258;59.424;13.482;2023-04-08T16:07:27;12.60;86.70
46217;DHT22;47258;59.424;13.482;2023-04-08T16:09:56;12.60;86.20
46217;DHT22;47258;59.424;13.482;2023-04-08T16:12:30;12.60;85.50
46217;DHT22;47258;59.424;13.482;2023-04-08T16:15:03;12.60;85.50
46217;DHT22;47258;59.424;13.482;2023-04-08T16:17:32;12.60;86.00
46217;DHT22;47258;59.424;13.482;2023-04-08T16:20:05;12.60;86.10
46217;DHT22;47258;59.424;13.482;2023-04-08T16:22:41;12.60;86.10
46217;DHT22;47258;59.424;13.482;2023-04-08T16:25:13;12.60;84.90
46217;DHT22;47258;59.424;13.482;2023-04-08T16:27:42;12.60;84.90
46217;DHT22;47258;59.424;13.482;2023-04-08T16:30:15;12.50;84.50
46217;DHT22;47258;59.424;13.482;2023-04-08T16:32:47;12.50;84.00
46217;DHT22;47258;59.424;13.482;2023-04-08T16:35:16;12.50;84.80
46217;DHT22;47258;59.424;13.482;2023-04-08T16:37:44;12.50;83.60
46217;DHT22;47258;59.424;13.482;2023-04-08T16:40:11;12.50;83.60
46217;DHT22;47258;59.424;13.482;2023-04-08T16:42:38;12.40;83.90
46217;DHT22;47258;59.424;13.482;2023-04-08T16:45:06;12.40;83.50
46217;DHT22;47258;59.424;13.482;2023-04-08T16:47:35;12.40;83.40
46217;DHT22;47258;59.424;13.482;2023-04-08T16:50:04;12.40;82.90
46217;DHT22;47258;59.424;13.482;2023-04-08T16:52:32;12.30;82.80
46217;DHT22;47258;59.424;13.482;2023-04-08T16:54:58;12.30;82.60
46217;DHT22;47258;59.424;13.482;2023-04-08T16:57:26;12.30;83.20
46217;DHT22;47258;59.424;13.482;2023-04-08T16:59:53;12.30;83.40
46217;DHT22;47258;59.424;13.482;2023-04-08T17:02:20;12.30;83.10
46217;DHT22;47258;59.424;13.482;2023-04-08T17:04:49;12.30;83.10
46217;DHT22;47258;59.424;13.482;2023-04-08T17:07:16;12.20;83.00
46217;DHT22;47258;59.424;13.482;2023-04-08T17:09:43;12.20;83.10
46217;DHT22;47258;59.424;13.482;2023-04-08T17:12:15;12.20;82.90
46217;DHT22;47258;59.424;13.482;2023-04-08T17:14:42;12.20;82.90
46217;DHT22;47258;59.424;13.482;2023-04-08T17:17:09;12.20;83.10
46217;DHT22;47258;59.424;13.482;2023-04-08T17:19:36;12.10;83.20
46217;DHT22;47258;59.424;13.482;2023-04-08T17:22:05;12.10;82.90
46217;DHT22;47258;59.424;13.482;2023-04-08T17:24:32;12.10;82.50
46217;DHT22;47258;59.424;13.482;2023-04-08T17:26:59;12.10;82.30
46217;DHT22;47258;59.424;13.482;2023-04-08T17:29:26;12.10;82.80
46217;DHT22;47258;59.424;13.482;2023-04-08T17:31:53;12.00;82.80
46217;DHT22;47258;59.424;13.482;2023-04-08T17:34:20;12.00;84.20
46217;DHT22;47258;59.424;13.482;2023-04-08T17:36:47;11.90;84.60
46217;DHT22;47258;59.424;13.482;2023-04-08T17:39:15;11.90;83.90
46217;DHT22;47258;59.424;13.482;2023-04-08T17:41:42;11.90;84.00
46217;DHT22;47258;59.424;13.482;2023-04-08T17:44:10;11.80;84.60
46217;DHT22;47258;59.424;13.482;2023-04-08T17:46:37;11.70;84.60
46217;DHT22;47258;59.424;13.482;2023-04-08T17:49:04;11.70;82.90
46217;DHT22;47258;59.424;13.482;2023-04-08T17:51:31;11.60;83.40
46217;DHT22;47258;59.424;13.482;2023-04-08T17:53:58;11.50;84.20
46217;DHT22;47258;59.424;13.482;2023-04-08T17:56:27;11.50;84.10
46217;DHT22;47258;59.424;13.482;2023-04-08T17:58:54;11.40;84.50
46217;DHT22;47258;59.424;13.482;2023-04-08T18:01:21;11.40;86.00
46217;DHT22;47258;59.424;13.482;2023-04-08T18:03:48;11.30;86.50
46217;DHT22;47258;59.424;13.482;2023-04-08T18:06:15;11.20;86.90
46217;DHT22;47258;59.424;13.482;2023-04-08T18:08:43;11.20;87.40
46217;DHT22;47258;59.424;13.482;2023-04-08T18:11:10;11.10;87.60
46217;DHT22;47258;59.424;13.482;2023-04-08T18:13:39;11.10;88.40
46217;DHT22;47258;59.424;13.482;2023-04-08T18:16:13;11.00;88.90
46217;DHT22;47258;59.424;13.482;2023-04-08T18:18:40;11.00;89.40
46217;DHT22;47258;59.424;13.482;2023-04-08T18:21:07;10.90;89.30
46217;DHT22;47258;59.424;13.482;2023-04-08T18:23:34;10.90;89.10
46217;DHT22;47258;59.424;13.482;2023-04-08T18:26:02;10.80;89.40
46217;DHT22;47258;59.424;13.482;2023-04-08T18:28:29;10.70;89.10
46217;DHT22;47258;59.424;13.482;2023-04-08T18:30:58;10.70;89.40
46217;DHT22;47258;59.424;13.482;2023-04-08T18:33:25;10.60;89.20
46217;DHT22;47258;59.424;13.482;2023-04-08T18:35:52;10.50;89.70